Time;durP1;ratioP1;P1;durP2;ratioP2;P2;SDS_P1;SDS_P2;PMS_P1;PMS_P2;Temp;Humidity;BMP_temperature;BMP_pressure;BME280_temperature;BME280_humidity;BME280_pressure;Samples;Min_cycle;Max_cycle;Signal;HPM_P1;HPM_P2
2021/01/20 00:00:07;;;;;;;81.97;50.40;;;;;;;-144.01;100.00;62166.59;5057049;28;20036;-57
2021/01/20 00:02:34;;;;;;;77.63;48.80;;;;;;;-144.01;100.00;62166.59;5056726;28;20060;-59
2021/01/20 00:05:01;;;;;;;66.78;44.15;;;;;;;-144.01;100.00;62166.59;5056126;28;20505;-59
2021/01/20 00:07:28;;;;;;;69.97;45.05;;;;;;;-144.01;100.00;62166.59;5057049;28;20446;-60
2021/01/20 00:09:55;;;;;;;64.65;42.88;;;;;;;-144.01;100.00;62166.59;5057091;28;20481;-59
2021/01/20 00:12:22;;;;;;;60.35;39.60;;;;;;;-144.01;100.00;62166.59;5056749;28;20053;-60
2021/01/20 00:14:49;;;;;;;60.90;40.25;;;;;;;-144.01;100.00;62166.59;5057171;28;20052;-57
2021/01/20 00:17:19;;;;;;;61.05;39.60;;;;;;;-144.01;100.00;62166.59;5056963;28;20083;-55
2021/01/20 00:19:47;;;;;;;58.67;37.83;;;;;;;-144.01;100.00;62166.59;5063905;28;20047;-57
2021/01/20 00:22:15;;;;;;;59.25;39.22;;;;;;;-144.01;100.00;62166.59;5076338;28;20059;-58
2021/01/20 00:24:42;;;;;;;51.60;35.00;;;;;;;-144.01;100.00;62166.59;5076713;28;20471;-60
2021/01/20 00:27:09;;;;;;;52.03;35.45;;;;;;;-144.01;100.00;62166.59;5076831;28;20056;-57
2021/01/20 00:29:36;;;;;;;53.83;36.30;;;;;;;-144.01;100.00;62166.59;5057044;28;20060;-56
2021/01/20 00:32:09;;;;;;;57.95;37.85;;;;;;;-144.01;100.00;62166.59;5056300;28;20064;-60
2021/01/20 00:34:36;;;;;;;56.67;38.00;;;;;;;-144.01;100.00;62166.59;5039609;28;20476;-61
2021/01/20 00:37:04;;;;;;;61.38;38.92;;;;;;;-144.01;100.00;62166.59;5036676;28;20061;-60
2021/01/20 00:39:31;;;;;;;71.40;45.67;;;;;;;-144.01;100.00;62166.59;5054364;28;20049;-58
2021/01/20 00:41:58;;;;;;;81.50;52.28;;;;;;;-144.01;100.00;62166.59;5056003;28;20068;-61
2021/01/20 00:44:25;;;;;;;95.90;60.70;;;;;;;-144.01;100.00;62166.59;5038498;28;20052;-66
2021/01/20 00:46:52;;;;;;;97.25;60.13;;;;;;;-144.01;100.00;62166.59;5056359;28;20067;-61
2021/01/20 00:49:20;;;;;;;87.18;54.63;;;;;;;-144.01;100.00;62166.59;5058804;28;20462;-57
2021/01/20 00:51:47;;;;;;;79.18;49.42;;;;;;;-144.01;100.00;62166.59;5070447;28;20048;-61
2021/01/20 00:54:14;;;;;;;81.97;52.40;;;;;;;-144.01;100.00;62166.59;5036019;28;20045;-58
2021/01/20 00:56:41;;;;;;;87.07;53.45;;;;;;;-144.01;100.00;62166.59;5035836;28;20422;-58
2021/01/20 00:59:09;;;;;;;85.63;52.03;;;;;;;-144.01;100.00;62166.59;5049193;28;20486;-56
2021/01/20 01:01:36;;;;;;;82.43;52.47;;;;;;;-144.01;100.00;62166.59;5038126;28;20052;-58
2021/01/20 01:04:08;;;;;;;68.03;44.08;;;;;;;-144.01;100.00;62166.59;5055349;28;20063;-57
2021/01/20 01:06:35;;;;;;;72.88;47.95;;;;;;;-144.01;100.00;62166.59;5055700;28;20123;-59
2021/01/20 01:09:08;;;;;;;75.47;47.17;;;;;;;-144.01;100.00;62166.59;5050130;28;20062;-57
2021/01/20 01:11:35;;;;;;;68.78;45.58;;;;;;;-144.01;100.00;62166.59;5055450;28;20056;-60
2021/01/20 01:14:03;;;;;;;58.58;38.67;;;;;;;-144.01;100.00;62166.59;5054827;28;20064;-60
2021/01/20 01:16:55;;;;;;;64.55;41.55;;;;;;;-144.01;100.00;62166.59;5054427;28;20056;-56
2021/01/20 01:19:39;;;;;;;63.58;41.10;;;;;;;-144.01;100.00;62166.59;5033419;28;20051;-61
2021/01/20 01:22:07;;;;;;;50.47;34.95;;;;;;;-144.01;100.00;62166.59;5057625;28;20055;-59
2021/01/20 01:24:37;;;;;;;59.63;39.17;;;;;;;-144.01;100.00;62166.59;5058155;28;20044;-58
2021/01/20 01:27:05;;;;;;;54.72;37.75;;;;;;;-144.01;100.00;62166.59;5075627;28;20048;-59
2021/01/20 01:29:32;;;;;;;53.58;35.38;;;;;;;-144.01;100.00;62166.59;5058302;28;20045;-60
2021/01/20 01:32:06;;;;;;;54.85;35.40;;;;;;;-144.01;100.00;62166.59;5054396;28;20063;-60
2021/01/20 01:34:34;;;;;;;55.22;37.30;;;;;;;-144.01;100.00;62166.59;5038258;28;20049;-57
2021/01/20 01:37:06;;;;;;;39.50;26.43;;;;;;;-144.01;100.00;62166.59;5055590;28;20063;-57
2021/01/20 01:40:06;;;;;;;41.63;28.70;;;;;;;-144.01;100.00;62166.59;5074407;28;20278;-58
2021/01/20 01:42:37;;;;;;;38.03;27.35;;;;;;;-144.01;100.00;62166.59;5045155;28;20056;-58
2021/01/20 01:45:05;;;;;;;41.08;28.50;;;;;;;-144.01;100.00;62166.59;5035266;28;20452;-59
2021/01/20 01:47:32;;;;;;;38.50;27.50;;;;;;;-144.01;100.00;62166.59;5017950;28;20045;-58
2021/01/20 01:50:06;;;;;;;39.35;28.15;;;;;;;-144.01;100.00;62166.59;5044593;28;20057;-59
2021/01/20 01:52:37;;;;;;;35.17;25.60;;;;;;;-144.01;100.00;62166.59;5054888;28;20040;-59
2021/01/20 01:55:22;;;;;;;32.78;24.02;;;;;;;-144.01;100.00;62166.59;5035745;28;20064;-57
2021/01/20 01:58:22;;;;;;;32.38;24.08;;;;;;;-144.01;100.00;62166.59;5040416;28;20056;-59
2021/01/20 02:00:57;;;;;;;32.17;22.15;;;;;;;-144.01;100.00;62166.59;5074134;28;20336;-61
2021/01/20 02:03:30;;;;;;;42.13;28.05;;;;;;;-144.01;100.00;62166.59;5041693;28;20263;-60
2021/01/20 02:05:58;;;;;;;34.65;25.15;;;;;;;-144.01;100.00;62166.59;5057616;28;20068;-60
2021/01/20 02:08:25;;;;;;;28.02;20.85;;;;;;;-144.01;100.00;62166.59;5073948;28;20044;-60
2021/01/20 02:11:22;;;;;;;26.58;19.92;;;;;;;-144.01;100.00;62166.59;5059545;28;20060;-60
2021/01/20 02:14:23;;;;;;;28.80;21.67;;;;;;;-144.01;100.00;62166.59;5075398;28;20482;-56
2021/01/20 02:17:15;;;;;;;30.23;20.70;;;;;;;-144.01;100.00;62166.59;5057459;28;20355;-65
2021/01/20 02:19:55;;;;;;;23.45;17.20;;;;;;;-144.01;100.00;62166.59;5047541;28;20049;-60
2021/01/20 02:22:52;;;;;;;24.05;17.85;;;;;;;-144.01;100.00;62166.59;5053117;28;20049;-63
2021/01/20 02:26:10;;;;;;;24.92;17.73;;;;;;;-144.01;100.00;62166.59;4992995;28;20069;-59
2021/01/20 02:29:05;;;;;;;21.38;16.27;;;;;;;-144.01;100.00;62166.59;5049972;28;20072;-59
2021/01/20 02:31:38;;;;;;;22.23;16.55;;;;;;;-144.01;100.00;62166.59;5060161;28;20049;-58
2021/01/20 02:34:09;;;;;;;24.00;17.17;;;;;;;-144.01;100.00;62166.59;5052275;28;20049;-55
2021/01/20 02:36:40;;;;;;;;;;;;;;;-144.01;100.00;62166.59;5037542;28;20061;-59
2021/01/20 02:39:25;;;;;;;29.42;18.65;;;;;;;-144.01;100.00;62166.59;5050739;28;20414;-61
2021/01/20 02:42:12;;;;;;;23.05;15.27;;;;;;;-144.01;100.00;62166.59;5029775;28;20053;-64
2021/01/20 02:44:44;;;;;;;25.23;16.83;;;;;;;-144.01;100.00;62166.59;5037280;28;20060;-65
2021/01/20 02:47:32;;;;;;;20.95;15.32;;;;;;;-144.01;100.00;62166.59;5038412;28;20053;-61
2021/01/20 02:50:04;;;;;;;23.67;17.25;;;;;;;-144.01;100.00;62166.59;5055307;28;20061;-59
2021/01/20 02:52:48;;;;;;;25.23;17.42;;;;;;;-144.01;100.00;62166.59;5057431;28;20057;-61
2021/01/20 02:55:33;;;;;;;25.70;17.63;;;;;;;-144.01;100.00;62166.59;5058129;28;20053;-62
2021/01/20 02:58:24;;;;;;;25.58;17.35;;;;;;;-144.01;100.00;62166.59;5070410;28;20051;-60
2021/01/20 03:01:12;;;;;;;26.02;16.67;;;;;;;-144.01;100.00;62166.59;5001879;28;20064;-58
2021/01/20 03:03:40;;;;;;;24.48;17.52;;;;;;;-144.01;100.00;62166.59;5037461;28;20437;-56
2021/01/20 03:06:08;;;;;;;24.15;17.85;;;;;;;-144.01;100.00;62166.59;5044502;28;20056;-63
2021/01/20 03:08:36;;;;;;;26.02;18.48;;;;;;;-144.01;100.00;62166.59;5050007;28;20045;-59
2021/01/20 03:11:05;;;;;;;29.15;18.83;;;;;;;-144.01;100.00;62166.59;5057814;28;20111;-60
2021/01/20 03:13:36;;;;;;;26.75;19.77;;;;;;;-144.01;100.00;62166.59;5037616;28;20049;-64
2021/01/20 03:16:06;;;;;;;26.23;19.27;;;;;;;-144.01;100.00;62166.59;5037856;28;20061;-58
2021/01/20 03:18:33;;;;;;;26.02;18.45;;;;;;;-144.01;100.00;62166.59;5042818;28;20046;-66
2021/01/20 03:21:02;;;;;;;27.05;19.73;;;;;;;-144.01;100.00;62166.59;5075095;28;20451;-63
2021/01/20 03:23:29;;;;;;;27.67;18.63;;;;;;;-144.01;100.00;62166.59;5077560;28;20044;-58
2021/01/20 03:25:59;;;;;;;24.92;17.55;;;;;;;-144.01;100.00;62166.59;5066554;28;20057;-61
2021/01/20 03:28:26;;;;;;;27.02;18.23;;;;;;;-144.01;100.00;62166.59;5057275;28;20052;-58
2021/01/20 03:30:53;;;;;;;24.23;17.25;;;;;;;-144.01;100.00;62166.59;5054365;28;20055;-65
2021/01/20 03:33:20;;;;;;;23.92;17.55;;;;;;;-144.01;100.00;62166.59;5037455;28;20045;-62
2021/01/20 03:35:47;;;;;;;27.98;19.95;;;;;;;-144.01;100.00;62166.59;5037428;28;20362;-64
2021/01/20 03:38:14;;;;;;;28.83;19.92;;;;;;;-144.01;100.00;62166.59;5050382;28;20325;-64
2021/01/20 03:40:41;;;;;;;24.98;16.95;;;;;;;-144.01;100.00;62166.59;5056830;28;20060;-64
2021/01/20 03:43:09;;;;;;;28.80;17.40;;;;;;;-144.01;100.00;62166.59;5035976;28;20571;-58
2021/01/20 03:45:36;;;;;;;26.88;18.17;;;;;;;-144.01;100.00;62166.59;5037416;28;20057;-57
2021/01/20 03:48:03;;;;;;;23.73;16.95;;;;;;;-144.01;100.00;62166.59;5048919;28;20337;-58
2021/01/20 03:50:30;;;;;;;22.90;15.23;;;;;;;-144.01;100.00;62166.59;5070162;28;20517;-59
2021/01/20 03:52:57;;;;;;;26.23;16.60;;;;;;;-144.01;100.00;62166.59;5076944;28;20067;-61
2021/01/20 03:55:24;;;;;;;23.85;16.98;;;;;;;-144.01;100.00;62166.59;5076396;28;20056;-65
2021/01/20 03:57:52;;;;;;;21.95;17.40;;;;;;;-144.01;100.00;62166.59;5056572;28;20052;-59
2021/01/20 04:00:19;;;;;;;22.63;16.63;;;;;;;-144.01;100.00;62166.59;5057164;28;20056;-60
2021/01/20 04:02:46;;;;;;;22.20;16.00;;;;;;;-144.01;100.00;62166.59;5055686;28;20053;-58
2021/01/20 04:05:25;;;;;;;24.90;17.00;;;;;;;-144.01;100.00;62166.59;5056008;28;20056;-62
2021/01/20 04:07:52;;;;;;;23.65;16.90;;;;;;;-144.01;100.00;62166.59;5056891;28;20444;-60
2021/01/20 04:10:19;;;;;;;24.88;18.85;;;;;;;-144.01;100.00;62166.59;5056399;28;20053;-58
2021/01/20 04:12:46;;;;;;;27.67;19.85;;;;;;;-144.01;100.00;62166.59;5037945;28;20049;-58
2021/01/20 04:15:13;;;;;;;27.45;18.40;;;;;;;-144.01;100.00;62166.59;5056867;28;20064;-61
2021/01/20 04:17:41;;;;;;;23.20;18.02;;;;;;;-144.01;100.00;62166.59;5056526;28;20048;-61
2021/01/20 04:20:08;;;;;;;26.17;17.45;;;;;;;-144.01;100.00;62166.59;5066558;28;20048;-59
2021/01/20 04:22:36;;;;;;;21.05;14.52;;;;;;;-144.01;100.00;62166.59;5076216;28;20048;-62
2021/01/20 04:25:04;;;;;;;19.73;13.45;;;;;;;-144.01;100.00;62166.59;5056439;28;20372;-64
2021/01/20 04:27:31;;;;;;;20.15;13.88;;;;;;;-144.01;100.00;62166.59;5046440;28;20450;-58
2021/01/20 04:29:58;;;;;;;21.10;13.82;;;;;;;-144.01;100.00;62166.59;5036633;28;20053;-57
2021/01/20 04:32:25;;;;;;;19.85;14.55;;;;;;;-144.01;100.00;62166.59;5036091;28;20464;-61
2021/01/20 04:34:52;;;;;;;22.10;15.23;;;;;;;-144.01;100.00;62166.59;5037557;28;20056;-61
2021/01/20 04:37:20;;;;;;;21.83;15.93;;;;;;;-144.01;100.00;62166.59;5036440;28;20475;-63
2021/01/20 04:39:47;;;;;;;21.52;15.80;;;;;;;-144.01;100.00;62166.59;5036639;28;20049;-59
2021/01/20 04:42:14;;;;;;;21.33;14.80;;;;;;;-144.01;100.00;62166.59;5036252;28;20050;-59
2021/01/20 04:44:41;;;;;;;21.65;15.77;;;;;;;-144.01;100.00;62166.59;5051958;28;20438;-62
2021/01/20 04:47:10;;;;;;;21.85;15.25;;;;;;;-144.01;100.00;62166.59;5042422;28;20041;-60
2021/01/20 04:49:39;;;;;;;23.48;16.52;;;;;;;-144.01;100.00;62166.59;5046453;28;20489;-63
2021/01/20 04:52:07;;;;;;;19.85;15.20;;;;;;;-144.01;100.00;62166.59;5058214;28;20447;-63
2021/01/20 04:54:36;;;;;;;24.08;16.30;;;;;;;-144.01;100.00;62166.59;5043176;28;20053;-65
2021/01/20 04:57:03;;;;;;;25.33;16.60;;;;;;;-144.01;100.00;62166.59;5042483;28;20071;-69
2021/01/20 04:59:30;;;;;;;23.45;15.80;;;;;;;-144.01;100.00;62166.59;5066226;28;20044;-69
2021/01/20 05:01:58;;;;;;;23.08;14.80;;;;;;;-144.01;100.00;62166.59;5064578;28;20379;-70
2021/01/20 05:04:25;;;;;;;23.40;15.30;;;;;;;-144.01;100.00;62166.59;5059759;28;20053;-71
2021/01/20 05:06:53;;;;;;;21.75;15.30;;;;;;;-144.01;100.00;62166.59;5063679;28;20052;-64
2021/01/20 05:09:20;;;;;;;21.15;14.55;;;;;;;-144.01;100.00;62166.59;5065969;28;20053;-60
2021/01/20 05:11:47;;;;;;;18.45;14.05;;;;;;;-144.01;100.00;62166.59;5059038;28;20049;-69
2021/01/20 05:14:18;;;;;;;21.02;15.43;;;;;;;-144.01;100.00;62166.59;5054290;28;20052;-73
2021/01/20 05:16:51;;;;;;;20.88;15.18;;;;;;;-144.01;100.00;62166.59;5052454;28;20470;-60
2021/01/20 05:19:36;;;;;;;21.90;15.38;;;;;;;-144.01;100.00;62166.59;5049728;28;20060;-65
2021/01/20 05:22:05;;;;;;;21.48;15.25;;;;;;;-144.01;100.00;62166.59;5055076;28;20063;-74
2021/01/20 05:24:36;;;;;;;20.40;14.77;;;;;;;-144.01;100.00;62166.59;5046822;28;20079;-58
2021/01/20 05:27:04;;;;;;;22.25;15.50;;;;;;;-144.01;100.00;62166.59;5035435;28;20053;-57
2021/01/20 05:29:32;;;;;;;19.42;14.85;;;;;;;-144.01;100.00;62166.59;5042506;28;20052;-62
2021/01/20 05:32:18;;;;;;;21.50;16.45;;;;;;;-144.01;100.00;62166.59;5057870;28;20048;-60
2021/01/20 05:35:05;;;;;;;23.02;17.42;;;;;;;-144.01;100.00;62166.59;5052617;28;20451;-62
2021/01/20 05:37:42;;;;;;;25.88;18.05;;;;;;;-144.01;100.00;62166.59;5050298;28;20457;-59
2021/01/20 05:40:13;;;;;;;22.73;17.17;;;;;;;-144.01;100.00;62166.59;5047263;28;20052;-65
2021/01/20 05:42:52;;;;;;;27.58;17.90;;;;;;;-144.01;100.00;62166.59;5055056;28;20060;-64
2021/01/20 05:45:24;;;;;;;25.77;17.48;;;;;;;-144.01;100.00;62166.59;5054901;28;20053;-62
2021/01/20 05:48:00;;;;;;;27.67;18.20;;;;;;;-144.01;100.00;62166.59;5035423;28;20064;-64
2021/01/20 05:50:28;;;;;;;23.52;17.02;;;;;;;-144.01;100.00;62166.59;5060741;28;20044;-62
2021/01/20 05:53:12;;;;;;;24.35;16.50;;;;;;;-144.01;100.00;62166.59;5035776;28;20391;-65
2021/01/20 05:55:40;;;;;;;23.48;16.77;;;;;;;-144.01;100.00;62166.59;5035492;28;20049;-60
2021/01/20 05:58:07;;;;;;;22.15;15.95;;;;;;;-144.01;100.00;62166.59;5046592;28;20052;-65
2021/01/20 06:00:34;;;;;;;20.48;15.13;;;;;;;-144.01;100.00;62166.59;5054778;28;20357;-66
2021/01/20 06:03:01;;;;;;;23.90;14.63;;;;;;;-144.01;100.00;62166.59;5056783;28;20379;-58
2021/01/20 06:05:28;;;;;;;22.20;15.73;;;;;;;-144.01;100.00;62166.59;5059153;28;20048;-61
2021/01/20 06:07:55;;;;;;;20.65;14.52;;;;;;;-144.01;100.00;62166.59;5059161;28;20053;-63
2021/01/20 06:10:23;;;;;;;19.90;14.23;;;;;;;-144.01;100.00;62166.59;5058959;28;20063;-61
2021/01/20 06:12:53;;;;;;;18.80;13.13;;;;;;;-144.01;100.00;62166.59;5042025;28;20056;-65
2021/01/20 06:15:20;;;;;;;21.33;15.07;;;;;;;-144.01;100.00;62166.59;5056852;28;20488;-65
2021/01/20 06:17:53;;;;;;;21.73;15.30;;;;;;;-144.01;100.00;62166.59;5057973;28;20057;-60
2021/01/20 06:20:23;;;;;;;22.15;15.52;;;;;;;-144.01;100.00;62166.59;5070619;28;20049;-59
2021/01/20 06:22:53;;;;;;;22.73;15.65;;;;;;;-144.01;100.00;62166.59;5060601;28;20053;-65
2021/01/20 06:25:33;;;;;;;24.02;15.38;;;;;;;-144.01;100.00;62166.59;5057646;28;20053;-58
2021/01/20 06:28:06;;;;;;;24.52;15.82;;;;;;;-144.01;100.00;62166.59;5059092;28;20435;-61
2021/01/20 06:30:47;;;;;;;25.65;17.65;;;;;;;-144.01;100.00;62166.59;5041036;28;20049;-57
2021/01/20 06:33:17;;;;;;;26.48;14.55;;;;;;;-144.01;100.00;62166.59;5035004;28;20073;-63
2021/01/20 06:35:46;;;;;;;24.50;15.40;;;;;;;-144.01;100.00;62166.59;5034443;28;20068;-57
2021/01/20 06:38:28;;;;;;;22.52;15.05;;;;;;;-144.01;100.00;62166.59;5039006;28;20053;-60
2021/01/20 06:40:56;;;;;;;23.15;14.75;;;;;;;-144.01;100.00;62166.59;5026640;28;20053;-62
2021/01/20 06:43:46;;;;;;;27.55;15.90;;;;;;;-144.01;100.00;62166.59;5020247;28;20508;-64
2021/01/20 06:46:27;;;;;;;20.73;14.82;;;;;;;-144.01;100.00;62166.59;5038510;28;20061;-57
2021/01/20 06:48:54;;;;;;;24.67;16.85;;;;;;;-144.01;100.00;62166.59;5024226;28;20457;-57
2021/01/20 06:51:22;;;;;;;24.83;16.42;;;;;;;-144.01;100.00;62166.59;5027739;28;20057;-66
2021/01/20 06:54:10;;;;;;;23.23;16.38;;;;;;;-144.01;100.00;62166.59;5023409;28;20057;-66
2021/01/20 06:56:42;;;;;;;24.23;17.48;;;;;;;-144.01;100.00;62166.59;5038239;28;20053;-63
2021/01/20 06:59:19;;;;;;;22.63;16.38;;;;;;;-144.01;100.00;62166.59;5015331;28;20053;-63
2021/01/20 07:02:04;;;;;;;23.45;16.73;;;;;;;-144.01;100.00;62166.59;5018240;28;20042;-61
2021/01/20 07:04:40;;;;;;;24.35;16.00;;;;;;;-144.01;100.00;62166.59;5028432;28;20057;-64
2021/01/20 07:07:12;;;;;;;25.30;17.05;;;;;;;-144.01;100.00;62166.59;5038049;28;20057;-61
2021/01/20 07:09:51;;;;;;;24.48;16.95;;;;;;;-144.01;100.00;62166.59;5037987;28;20053;-62
2021/01/20 07:12:22;;;;;;;22.33;16.70;;;;;;;-144.01;100.00;62166.59;5038004;28;20045;-57
2021/01/20 07:14:50;;;;;;;26.42;18.25;;;;;;;-144.01;100.00;62166.59;5037407;28;20499;-64
2021/01/20 07:17:18;;;;;;;26.48;18.42;;;;;;;-144.01;100.00;62166.59;5037993;28;20057;-62
2021/01/20 07:19:46;;;;;;;22.67;16.92;;;;;;;-144.01;100.00;62166.59;5025753;28;20047;-62
2021/01/20 07:22:14;;;;;;;20.95;15.75;;;;;;;-144.01;100.00;62166.59;5016913;28;20038;-59
2021/01/20 07:24:41;;;;;;;23.23;16.15;;;;;;;-144.01;100.00;62166.59;5029015;28;20065;-64
2021/01/20 07:27:10;;;;;;;23.70;16.77;;;;;;;-144.01;100.00;62166.59;5037852;28;20049;-62
2021/01/20 07:29:39;;;;;;;21.85;16.73;;;;;;;-144.01;100.00;62166.59;5037922;28;20049;-62
2021/01/20 07:32:07;;;;;;;24.48;15.40;;;;;;;-144.01;100.00;62166.59;5037499;28;20054;-65
2021/01/20 07:34:39;;;;;;;21.88;14.90;;;;;;;-144.01;100.00;62166.59;5036861;28;20050;-62
2021/01/20 07:37:11;;;;;;;21.58;14.27;;;;;;;-144.01;100.00;62166.59;5051089;28;20061;-65
2021/01/20 07:39:38;;;;;;;18.48;14.75;;;;;;;-144.01;100.00;62166.59;5037574;28;20042;-61
2021/01/20 07:42:06;;;;;;;20.33;14.65;;;;;;;-144.01;100.00;62166.59;5025216;28;20038;-59
2021/01/20 07:44:34;;;;;;;21.55;14.80;;;;;;;-144.01;100.00;62166.59;5026727;28;20061;-64
2021/01/20 07:47:06;;;;;;;20.73;16.23;;;;;;;-144.01;100.00;62166.59;5037463;28;20056;-61
2021/01/20 07:49:34;;;;;;;22.92;17.50;;;;;;;-144.01;100.00;62166.59;5031638;28;20405;-64
2021/01/20 07:52:09;;;;;;;20.23;16.25;;;;;;;-144.01;100.00;62166.59;5036413;28;20056;-63
2021/01/20 07:54:40;;;;;;;21.20;15.63;;;;;;;-144.01;100.00;62166.59;5036812;28;20056;-60
2021/01/20 07:57:08;;;;;;;22.60;16.67;;;;;;;-144.01;100.00;62166.59;5037271;28;20336;-60
2021/01/20 07:59:36;;;;;;;25.10;16.90;;;;;;;-144.01;100.00;62166.59;5052769;28;20053;-63
2021/01/20 08:02:10;;;;;;;21.92;16.42;;;;;;;-144.01;100.00;62166.59;5036060;28;20058;-66
2021/01/20 08:04:38;;;;;;;21.00;16.20;;;;;;;-144.01;100.00;62166.59;5024046;28;20046;-64
2021/01/20 08:07:09;;;;;;;24.20;17.70;;;;;;;-144.01;100.00;62166.59;5016928;28;20096;-60
2021/01/20 08:09:39;;;;;;;22.55;16.98;;;;;;;-144.01;100.00;62166.59;5017119;28;20049;-60
2021/01/20 08:12:08;;;;;;;21.80;16.48;;;;;;;-144.01;100.00;62166.59;5016800;28;20061;-59
2021/01/20 08:14:37;;;;;;;23.50;16.73;;;;;;;-144.01;100.00;62166.59;5028419;28;20056;-58
2021/01/20 08:17:08;;;;;;;23.10;17.38;;;;;;;-144.01;100.00;62166.59;5036827;28;20375;-65
2021/01/20 08:19:35;;;;;;;20.23;16.10;;;;;;;-144.01;100.00;62166.59;5042111;28;20053;-61
2021/01/20 08:22:13;;;;;;;22.52;17.08;;;;;;;-144.01;100.00;62166.59;5039009;28;20084;-63
2021/01/20 08:24:47;;;;;;;24.73;17.48;;;;;;;-144.01;100.00;62166.59;5033275;28;20049;-64
2021/01/20 08:27:15;;;;;;;21.33;17.02;;;;;;;-144.01;100.00;62166.59;5036677;28;20075;-60
2021/01/20 08:29:51;;;;;;;25.02;17.45;;;;;;;-144.01;100.00;62166.59;5009503;28;20361;-64
2021/01/20 08:32:18;;;;;;;23.70;17.83;;;;;;;-144.01;100.00;62166.59;5016394;28;20058;-61
2021/01/20 08:34:48;;;;;;;24.17;17.10;;;;;;;-144.01;100.00;62166.59;5020127;28;20057;-65
2021/01/20 08:37:33;;;;;;;22.45;17.30;;;;;;;-144.01;100.00;62166.59;5035993;28;20133;-61
2021/01/20 08:40:02;;;;;;;25.33;18.08;;;;;;;-144.01;100.00;62166.59;5036630;28;20065;-63
2021/01/20 08:42:35;;;;;;;23.17;17.35;;;;;;;-144.01;100.00;62166.59;5036011;28;20045;-61
2021/01/20 08:45:20;;;;;;;22.52;17.05;;;;;;;-144.01;100.00;62166.59;5047835;28;20387;-61
2021/01/20 08:48:05;;;;;;;23.08;17.67;;;;;;;-144.01;100.00;62166.59;5056278;28;20049;-63
2021/01/20 08:50:40;;;;;;;25.77;17.27;;;;;;;-144.01;100.00;62166.59;5069164;28;20052;-66
2021/01/20 08:53:07;;;;;;;23.85;18.73;;;;;;;-144.01;100.00;62166.59;5075873;28;20383;-61
2021/01/20 08:55:35;;;;;;;23.25;18.85;;;;;;;-144.01;100.00;62166.59;5059896;28;20055;-66
2021/01/20 08:58:22;;;;;;;36.35;24.42;;;;;;;-144.01;100.00;62166.59;5056010;28;20048;-63
2021/01/20 09:00:54;;;;;;;36.25;26.55;;;;;;;-144.01;100.00;62166.59;5055710;28;20053;-61
2021/01/20 09:03:32;;;;;;;37.33;27.05;;;;;;;-144.01;100.00;62166.59;5055909;28;20045;-66
2021/01/20 09:06:01;;;;;;;29.63;22.17;;;;;;;-144.01;100.00;62166.59;5037035;28;20071;-59
2021/01/20 09:08:29;;;;;;;26.67;20.55;;;;;;;-144.01;100.00;62166.59;5055938;28;20049;-62
2021/01/20 09:10:58;;;;;;;34.83;22.40;;;;;;;-144.01;100.00;62166.59;5055699;28;20352;-57
2021/01/20 09:13:26;;;;;;;28.83;21.90;;;;;;;-144.01;100.00;62166.59;5038216;28;20075;-59
2021/01/20 09:15:54;;;;;;;32.55;23.75;;;;;;;-144.01;100.00;62166.59;5055755;28;20368;-62
2021/01/20 09:18:23;;;;;;;32.70;25.02;;;;;;;-144.01;100.00;62166.59;5055819;28;20049;-64
2021/01/20 09:20:51;;;;;;;38.88;26.73;;;;;;;-144.01;100.00;62166.59;5070164;28;20044;-66
2021/01/20 09:23:19;;;;;;;44.15;30.73;;;;;;;-144.01;100.00;62166.59;5075445;28;20048;-63
2021/01/20 09:25:47;;;;;;;39.92;29.88;;;;;;;-144.01;100.00;62166.59;5058473;28;20056;-60
2021/01/20 09:28:14;;;;;;;39.38;29.17;;;;;;;-144.01;100.00;62166.59;5055445;28;20057;-65
2021/01/20 09:30:42;;;;;;;36.40;28.45;;;;;;;-144.01;100.00;62166.59;5055044;28;20049;-58
2021/01/20 09:33:10;;;;;;;36.88;26.70;;;;;;;-144.01;100.00;62166.59;5035389;28;20076;-63
2021/01/20 09:35:37;;;;;;;30.55;22.73;;;;;;;-144.01;100.00;62166.59;5044584;28;20053;-61
2021/01/20 09:38:04;;;;;;;29.10;20.73;;;;;;;-144.01;100.00;62166.59;5034522;28;20049;-65
2021/01/20 09:40:32;;;;;;;24.85;20.73;;;;;;;-144.01;100.00;62166.59;5035286;28;20045;-63
2021/01/20 09:42:59;;;;;;;28.15;19.40;;;;;;;-144.01;100.00;62166.59;5035188;28;20053;-59
2021/01/20 09:45:29;;;;;;;25.95;19.70;;;;;;;-144.01;100.00;62166.59;5035120;28;20061;-62
2021/01/20 09:47:58;;;;;;;24.77;19.17;;;;;;;-144.01;100.00;62166.59;5025087;28;20061;-65
2021/01/20 09:50:25;;;;;;;24.17;19.58;;;;;;;-144.01;100.00;62166.59;5033811;28;20041;-61
2021/01/20 09:52:53;;;;;;;28.35;19.42;;;;;;;-144.01;100.00;62166.59;5014326;28;20057;-63
2021/01/20 09:55:21;;;;;;;26.23;19.75;;;;;;;-144.01;100.00;62166.59;5027036;28;20372;-62
2021/01/20 09:57:49;;;;;;;30.60;20.50;;;;;;;-144.01;100.00;62166.59;5035230;28;20060;-66
2021/01/20 10:00:17;;;;;;;28.55;19.02;;;;;;;-144.01;100.00;62166.59;5015640;28;20365;-64
2021/01/20 10:02:44;;;;;;;26.10;18.58;;;;;;;-144.01;100.00;62166.59;5015285;28;20045;-66
2021/01/20 10:05:11;;;;;;;28.95;19.13;;;;;;;-144.01;100.00;62166.59;5025673;28;20045;-61
2021/01/20 10:07:39;;;;;;;25.85;18.52;;;;;;;-144.01;100.00;62166.59;5035191;28;20057;-62
2021/01/20 10:10:09;;;;;;;23.45;18.13;;;;;;;-144.01;100.00;62166.59;5034749;28;20056;-61
2021/01/20 10:12:37;;;;;;;29.95;18.30;;;;;;;-144.01;100.00;62166.59;5034782;28;20052;-65
2021/01/20 10:15:08;;;;;;;63.03;40.92;;;;;;;-144.01;100.00;62166.59;5033788;28;20065;-63
2021/01/20 10:17:36;;;;;;;103.75;79.07;;;;;;;-144.01;100.00;62166.59;5031785;28;20575;-64
2021/01/20 10:20:05;;;;;;;28.75;19.23;;;;;;;-144.01;100.00;62166.59;5033367;28;20051;-64
2021/01/20 10:22:32;;;;;;;47.92;32.33;;;;;;;-144.01;100.00;62166.59;5032073;28;20045;-65
2021/01/20 10:24:59;;;;;;;44.72;33.25;;;;;;;-144.01;100.00;62166.59;5022849;28;20452;-64
2021/01/20 10:27:26;;;;;;;54.58;35.25;;;;;;;-144.01;100.00;62166.59;5032181;28;20066;-62
2021/01/20 10:29:53;;;;;;;53.38;34.33;;;;;;;-144.01;100.00;62166.59;5034842;28;20053;-61
2021/01/20 10:32:20;;;;;;;50.17;34.58;;;;;;;-144.01;100.00;62166.59;5034494;28;20053;-61
2021/01/20 10:34:47;;;;;;;45.80;32.97;;;;;;;-144.01;100.00;62166.59;5034594;28;20380;-57
2021/01/20 10:37:15;;;;;;;35.45;26.02;;;;;;;-144.01;100.00;62166.59;5073315;28;20371;-67
2021/01/20 10:39:42;;;;;;;35.03;24.08;;;;;;;-144.01;100.00;62166.59;5074750;28;20056;-66
2021/01/20 10:42:09;;;;;;;24.90;17.17;;;;;;;-144.01;100.00;62166.59;5074692;28;20052;-66
2021/01/20 10:44:36;;;;;;;27.10;17.38;;;;;;;-144.01;100.00;62166.59;5074575;28;20486;-66
2021/01/20 10:47:04;;;;;;;21.85;15.13;;;;;;;-144.01;100.00;62166.59;5044878;28;20060;-65
2021/01/20 10:49:31;;;;;;;29.10;15.55;;;;;;;-144.01;100.00;62166.59;5042255;28;20048;-65
2021/01/20 10:51:58;;;;;;;21.38;14.75;;;;;;;-144.01;100.00;62166.59;5051583;28;20061;-65
2021/01/20 10:54:25;;;;;;;20.02;13.00;;;;;;;-144.01;100.00;62166.59;5040331;28;20053;-64
2021/01/20 10:56:52;;;;;;;19.33;13.38;;;;;;;-144.01;100.00;62166.59;5060478;28;20053;-65
2021/01/20 10:59:19;;;;;;;21.73;13.90;;;;;;;-144.01;100.00;62166.59;5038221;28;20049;-58
2021/01/20 11:01:46;;;;;;;12.75;9.70;;;;;;;-144.01;100.00;62166.59;5037967;28;20057;-62
2021/01/20 11:04:16;;;;;;;10.23;6.50;;;;;;;-144.01;100.00;62166.59;5038503;28;20056;-66
2021/01/20 11:06:43;;;;;;;8.90;3.75;;;;;;;-144.01;100.00;62166.59;5074539;28;20056;-64
2021/01/20 11:09:10;;;;;;;10.82;4.68;;;;;;;-144.01;100.00;62166.59;5068883;28;20041;-59
2021/01/20 11:11:37;;;;;;;9.35;5.13;;;;;;;-144.01;100.00;62166.59;5037830;28;20049;-58